Flight Track Log - Related Links

Times and Time Zones

All times are in EDT time to prevent confusion due to time zone crossing. See the EJA396 flight status page for this flight to view local times or setup timezone preferences in your user account.

Time Position Orientation Groundspeed Altitude Reporting Facility
EDT Latitude Longitude Course Direction KTS MPH feet Rate Location/Type
Sat 08:42:15 AM 25.8000 -80.2792 82° East 156 180 800  Level Miami Center
Sat 08:43:10 AM 25.8078 -80.2147 82° East 270 311 3,800 3,519 Climbing Miami Center
Sat 08:43:59 AM 25.8136 -80.1481 84° East 262 302 6,900 2,133 Climbing Miami Center
Sat 08:44:40 AM 25.8375 -80.1047 59° Northeast 282 325 7,000 832 Climbing Miami Center
Sat 08:45:40 AM 25.8767 -80.0319 59° Northeast 288 331 8,300 2,600 Climbing Miami Center
Sat 08:46:40 AM 25.9181 -79.9592 58° Northeast 288 331 12,200 3,400 Climbing Miami Center
Sat 08:47:40 AM 25.9594 -79.8769 61° Northeast 288 331 15,100 2,750 Climbing Miami Center
Sat 08:48:40 AM 26.0069 -79.7928 58° Northeast 301 346 17,700 2,100 Climbing Miami Center
Sat 08:49:40 AM 26.0611 -79.6969 58° Northeast 329 379 19,300 1,600 Climbing Miami Center
Sat 08:50:40 AM 26.1194 -79.5964 57° Northeast 362 417 20,900 1,600 Climbing Miami Center
Sat 08:51:40 AM 26.1861 -79.4961 53° Northeast 383 441 22,500 1,600 Climbing Miami Center
Sat 08:52:40 AM 26.2547 -79.3933 53° Northeast 400 460 24,100 1,750 Climbing Miami Center
Sat 08:53:40 AM 26.3625 -79.3261 29° Northeast 410 472 26,000 1,750 Climbing Miami Center
Sat 08:54:40 AM 26.4594 -79.2772 24° Northeast 405 466 27,600 1,550 Climbing Miami Center
Sat 08:55:40 AM 26.5667 -79.2258 23° Northeast 410 472 29,100 1,600 Climbing Miami Center
Sat 08:56:40 AM 26.6742 -79.1700 25° Northeast 410 472 30,800 1,650 Climbing Miami Center
Sat 08:57:40 AM 26.7836 -79.1186 23° Northeast 416 479 32,400 1,650 Climbing Miami Center
Sat 08:58:40 AM 26.8867 -79.0647 25° Northeast 416 479 34,100 1,182 Climbing Miami Center
Sat 08:59:52 AM 26.9900 -79.0106 25° Northeast 411 473 35,000 409 Climbing Miami Center
Sat 09:00:52 AM 27.1372 -78.9339 25° Northeast 428 493 35,000  Level Miami Center
Sat 09:01:52 AM 27.2403 -78.8819 24° Northeast 440 506 35,000  Level Miami Center
Sat 09:02:52 AM 27.3517 -78.8256 24° Northeast 446 513 35,000 200 Level Miami Center
Sat 09:03:52 AM 27.4817 -78.7903 14° North 433 498 35,400 900 Climbing Miami Center
Sat 09:04:52 AM 27.5989 -78.7689 North 423 487 36,800 800 Climbing Miami Center
Sat 09:05:52 AM 27.7036 -78.7519 North 423 487 37,000 100 Climbing Miami Center
Sat 09:06:52 AM 27.8250 -78.7303 North 430 495 37,000  Level Miami Center
Sat 09:07:52 AM 27.9525 -78.7067 North 425 489 37,000  Level Miami Center
Sat 09:08:52 AM 28.0739 -78.6875 North 426 490 37,000  Level Miami Center
Sat 09:09:52 AM 28.1869 -78.6656 10° North 426 490 37,000  Level Miami Center
Sat 09:10:52 AM 28.3061 -78.6464 North 426 490 37,000  Level Miami Center
Sat 09:11:52 AM 28.4233 -78.6222 10° North 426 490 37,000  Level Miami Center
Sat 09:12:52 AM 28.5406 -78.6028 North 426 490 37,000  Level Miami Center
Sat 09:13:52 AM 28.6597 -78.5833 North 426 490 37,000  Level Miami Center
Sat 09:14:52 AM 28.7747 -78.5614 North 423 487 37,000  Level Miami Center
Sat 09:15:52 AM 28.8856 -78.5419 North 430 495 37,000  Level Miami Center
Sat 09:16:52 AM 29.0047 -78.5175 10° North 429 494 37,000  Level Miami Center
Sat 09:17:52 AM 29.1261 -78.4981 North 434 499 37,000  Level Miami Center
Sat 09:18:52 AM 29.2472 -78.4761 North 429 494 37,000  Level Miami Center
Sat 09:19:52 AM 29.3644 -78.4514 10° North 429 494 37,000  Level Miami Center
Sat 09:22:10 AM 29.6572 -78.4000 North 440 506 37,000  Level Jacksonville Center
Sat 09:23:10 AM 29.7753 -78.3753 10° North 429 494 37,000  Level Jacksonville Center
Sat 09:24:10 AM 29.8936 -78.3531 North 426 490 37,000  Level Jacksonville Center
Sat 09:25:10 AM 30.0136 -78.3306 North 424 488 37,000  Level Jacksonville Center
Sat 09:26:10 AM 30.1342 -78.3106 North 426 490 37,000  Level Jacksonville Center
Sat 09:27:10 AM 30.2378 -78.2936 North 426 490 37,000  Level Jacksonville Center
Sat 09:28:10 AM 30.3539 -78.2711 North 427 491 37,000  Level Jacksonville Center
Sat 09:29:10 AM 30.4844 -78.2478 North 433 498 37,000  Level Jacksonville Center
Sat 09:30:10 AM 30.6069 -78.2250 North 433 498 37,000  Level Jacksonville Center
Sat 09:31:11 AM 30.7250 -78.2047 North 433 498 37,000  Level Jacksonville Center
Sat 09:32:10 AM 30.8411 -78.1822 North 433 498 37,000  Level Jacksonville Center
Sat 09:33:10 AM 30.9614 -78.1567 10° North 438 504 37,000  Level Jacksonville Center
Sat 09:34:10 AM 31.0936 -78.1258 11° North 432 497 37,000  Level Jacksonville Center
Sat 09:35:10 AM 31.2139 -78.1028 North 436 502 37,000  Level Jacksonville Center
Sat 09:36:10 AM 31.3361 -78.0794 North 438 504 37,000  Level Jacksonville Center
Sat 09:37:10 AM 31.4564 -78.0586 North 445 512 37,000  Level Jacksonville Center
Sat 09:38:10 AM 31.5761 -78.0256 13° North 439 505 37,000  Level Jacksonville Center
Sat 09:39:10 AM 31.6939 -77.9878 15° North 438 504 37,000  Level Jacksonville Center
Sat 09:40:10 AM 31.8136 -77.9544 13° North 435 501 37,000  Level Jacksonville Center
Sat 09:41:10 AM 31.9331 -77.9139 16° North 435 501 37,000  Level Jacksonville Center
Sat 09:42:10 AM 32.0525 -77.8731 16° North 435 501 37,000  Level Jacksonville Center
Sat 09:43:10 AM 32.1725 -77.8444 11° North 435 501 37,000  Level Jacksonville Center
Sat 09:44:10 AM 32.2897 -77.8011 17° North 435 501 37,000  Level Jacksonville Center
Sat 09:45:11 AM 32.4069 -77.7625 16° North 430 495 37,000  Level Jacksonville Center
Sat 09:46:10 AM 32.5222 -77.7239 16° North 430 495 37,000  Level Jacksonville Center
Sat 09:48:23 AM 32.7778 -77.6386 16° North 433 498 37,000  Level Washington Center
Sat 09:49:24 AM 32.8950 -77.5994 16° North 433 498 37,000  Level Washington Center
Sat 09:50:25 AM 33.0125 -77.5625 15° North 433 498 37,000  Level Washington Center
Sat 09:51:25 AM 33.1278 -77.5206 17° North 433 498 37,000  Level Washington Center
Sat 09:52:25 AM 33.2453 -77.4886 13° North 433 498 37,000  Level Washington Center
Sat 09:53:23 AM 33.3644 -77.4664 North 433 498 37,000  Level Washington Center
Sat 09:54:24 AM 33.4858 -77.4417 10° North 433 498 37,000  Level Washington Center
Sat 09:55:24 AM 33.6050 -77.4194 North 433 498 37,000  Level Washington Center
Sat 09:56:25 AM 33.7264 -77.3972 North 428 493 37,000  Level Washington Center
Sat 09:57:22 AM 33.8456 -77.3722 10° North 428 493 37,000  Level Washington Center
Sat 09:58:23 AM 33.9650 -77.3497 North 428 493 37,000  Level Washington Center
Sat 09:59:23 AM 34.0736 -77.3294 North 434 499 37,000 -545 Level Washington Center
Sat 10:00:24 AM 34.1867 -77.3092 North 423 487 35,900 -1,377 Descending Washington Center
Sat 10:01:25 AM 34.2997 -77.2864 North 411 473 34,200 -1,765 Descending Washington Center
Sat 10:02:23 AM 34.4208 -77.2639 North 417 480 32,400 -1,815 Descending Washington Center
Sat 10:03:24 AM 34.5403 -77.2383 10° North 429 494 30,600 -1,736 Descending Washington Center
Sat 10:04:24 AM 34.6617 -77.2156 North 429 494 28,900 -1,800 Descending Washington Center
Sat 10:05:24 AM 34.7808 -77.1953 North 429 494 27,000 -1,934 Descending Washington Center
Sat 10:06:25 AM 34.8981 -77.1672 11° North 424 488 25,000 -1,966 Descending Washington Center
Sat 10:07:23 AM 35.0067 -77.1439 10° North 419 482 23,100 -1,916 Descending Washington Center
Sat 10:08:24 AM 35.1178 -77.1106 14° North 407 468 21,200 -1,131 Descending Washington Center
Sat 10:09:25 AM 35.2225 -77.0769 15° North 399 459 20,800 -1,041 Descending Washington Center
Sat 10:10:25 AM 35.3189 -77.0481 14° North 369 425 19,100 -1,729 Descending Washington Center
Sat 10:11:23 AM 35.4172 -77.0194 13° North 358 412 17,400 -1,815 Descending Washington Center
Sat 10:12:24 AM 35.5178 -76.9881 14° North 358 412 15,500 -1,820 Descending Washington Center
Sat 10:13:25 AM 35.6183 -76.9564 14° North 363 418 13,700 -1,721 Descending Washington Center
Sat 10:14:26 AM 35.7231 -76.9200 16° North 363 418 12,000 -1,373 Descending Washington Center
Sat 10:15:23 AM 35.8194 -76.8933 13° North 352 405 11,000 -508 Descending Washington Center
Sat 10:16:24 AM 35.9136 -76.8642 14° North 347 399 11,000  Level Washington Center
Sat 10:17:15 AM 35.9847 -76.8447 12° North 342 394 11,000  Level Washington Center
Sat 10:17:24 AM 36.0056 -76.8347 21° North 342 394 11,000  Level Washington Center
Sat 10:18:25 AM 36.0997 -76.8053 14° North 337 388 11,000 79 Level Washington Center
Sat 10:18:40 AM 36.1269 -76.8031 North 352 405 11,100  Climbing Washington Center
Sat 10:19:25 AM 36.1814 -76.7808 18° North 337 388 11,000  Descending Washington Center
Sat 10:19:49 AM 36.2294 -76.7714 North 354 407 11,100  Climbing Washington Center
Sat 10:20:25 AM 36.2756 -76.7514 19° North 337 388 11,000  Descending Washington Center
Sat 10:20:44 AM 36.3194 -76.7417 10° North 354 407 11,100 -103 Climbing Washington Center
Sat 10:21:23 AM 36.3719 -76.7192 19° North 337 388 10,900 -857 Descending Washington Center
Sat 10:21:54 AM 36.4078 -76.6758 44° Northeast 295 339 10,100 -1,180 Descending Washington Center
Sat 10:22:24 AM 36.4228 -76.6425 61° Northeast 303 349 9,700 -857 Descending Washington Center
Sat 10:22:57 AM 36.4419 -76.5861 67° East 279 321 9,200 -1,000 Descending Washington Center
Sat 10:23:24 AM 36.4567 -76.5528 61° Northeast 277 319 8,700 -1,759 Descending Washington Center
Sat 10:23:55 AM 36.4906 -76.5142 42° Northeast 280 322 7,500 -1,966 Descending Washington Center
Sat 10:24:22 AM 36.5117 -76.4861 47° Northeast 277 319 6,800 -1,781 Descending Washington Center
Sat 10:24:59 AM 36.5514 -76.4503 36° Northeast 272 313 5,600 -1,574 Descending Washington Center
Sat 10:25:23 AM 36.5703 -76.4300 41° Northeast 267 307 5,200 -667 Descending Washington Center
Sat 10:25:53 AM 36.6039 -76.3967 39° Northeast 262 302 5,000 -197 Descending Washington Center
Sat 10:26:24 AM 36.6250 -76.3736 41° Northeast 262 302 5,000  Level Washington Center
Sat 10:26:54 AM 36.6564 -76.3428 38° Northeast 248 285 5,000 71 Level Washington Center
Sat 10:27:49 AM 36.7089 -76.2889 39° Northeast 271 312 5,100 -690 Climbing Washington Center
Sat 10:28:47 AM 36.7675 -76.2453 31° Northeast 255 293 3,700 -1,115 Descending Washington Center
Sat 10:29:42 AM 36.8219 -76.2069 29° Northeast 238 274 3,000 -582 Descending Washington Center
Sat 10:31:01 AM 36.8786 -76.1553 36° Northeast 144 166 2,400 -592 Descending Washington Center
Sat 10:32:04 AM 36.9122 -76.1425 17° North 118 136 1,600 -821 Descending Washington Center
Sat 10:32:58 AM 36.9203 -76.1739 288° West 114 131 800 -889 Descending Washington Center

Login

Don't have an account? Register now (free) for customized features, flight alerts, and more!